Time;durP1;ratioP1;P1;durP2;ratioP2;P2;SDS_P1;SDS_P2;PMS_P1;PMS_P2;Temp;Humidity;BMP_temperature;BMP_pressure;BME280_temperature;BME280_humidity;BME280_pressure;Samples;Min_cycle;Max_cycle;Signal;HPM_P1;HPM_P2
2023/06/09 00:00:38;;;;;;;6.93;5.13;;;13.00;54.30;;;;;;4806726;29;20043;-59
2023/06/09 00:03:05;;;;;;;10.38;4.68;;;12.90;63.50;;;;;;4806709;29;20094;-59
2023/06/09 00:05:32;;;;;;;9.23;5.10;;;12.80;69.70;;;;;;4805910;29;20066;-59
2023/06/09 00:07:59;;;;;;;12.60;5.28;;;12.80;63.70;;;;;;4806426;29;20101;-59
2023/06/09 00:10:25;;;;;;;6.30;4.90;;;12.90;66.30;;;;;;4806747;29;20061;-59
2023/06/09 00:12:52;;;;;;;7.78;5.55;;;12.90;63.60;;;;;;4806622;29;20031;-59
2023/06/09 00:15:18;;;;;;;5.75;5.10;;;12.90;63.20;;;;;;4806495;29;20034;-59
2023/06/09 00:17:44;;;;;;;6.95;5.45;;;12.90;63.40;;;;;;4806628;29;20124;-59
2023/06/09 00:20:10;;;;;;;8.00;4.80;;;12.80;62.70;;;;;;4806301;29;20455;-59
2023/06/09 00:22:42;;;;;;;11.55;5.50;;;12.80;59.90;;;;;;4806412;29;20387;-59
2023/06/09 00:25:12;;;;;;;11.48;5.47;;;12.80;60.20;;;;;;4806162;29;20047;-59
2023/06/09 00:27:39;;;;;;;14.02;6.03;;;12.80;60.40;;;;;;4806457;29;20383;-59
2023/06/09 00:30:05;;;;;;;13.48;4.32;;;12.80;65.40;;;;;;4806355;29;20498;-59
2023/06/09 00:32:30;;;;;;;10.20;3.70;;;12.70;43.30;;;;;;4806254;29;20066;-59
2023/06/09 00:34:56;;;;;;;13.88;4.68;;;12.60;49.60;;;;;;4806152;29;20069;-59
2023/06/09 00:37:22;;;;;;;13.65;4.82;;;12.60;54.00;;;;;;4806230;29;20114;-59
2023/06/09 00:39:50;;;;;;;10.25;5.13;;;12.60;60.20;;;;;;4805900;29;20463;-59
2023/06/09 00:42:16;;;;;;;7.15;5.20;;;12.50;55.30;;;;;;4805746;29;20027;-59
2023/06/09 00:44:41;;;;;;;7.35;4.95;;;12.40;56.60;;;;;;4806154;29;20448;-59
2023/06/09 00:47:07;;;;;;;10.23;5.72;;;12.30;60.40;;;;;;4805466;29;20513;-59
2023/06/09 00:49:34;;;;;;;13.40;5.03;;;12.30;65.40;;;;;;4806153;29;20538;-59
2023/06/09 00:52:06;;;;;;;11.57;5.25;;;12.30;69.20;;;;;;4805870;29;20647;-59
2023/06/09 00:54:32;;;;;;;7.95;4.70;;;12.30;71.20;;;;;;4806008;29;20039;-59
2023/06/09 00:56:58;;;;;;;5.95;4.55;;;12.30;61.30;;;;;;4805840;29;20573;-59
2023/06/09 00:59:25;;;;;;;12.85;4.55;;;12.30;62.20;;;;;;4804689;29;20038;-59
2023/06/09 01:01:51;;;;;;;6.18;5.10;;;12.30;60.10;;;;;;4805632;29;20031;-59
2023/06/09 01:04:18;;;;;;;7.65;5.00;;;12.30;57.10;;;;;;4805734;29;20037;-59
2023/06/09 01:07:24;;;;;;;7.88;4.72;;;12.30;60.50;;;;;;4805830;29;20059;-59
2023/06/09 01:09:57;;;;;;;12.70;5.60;;;12.20;58.50;;;;;;4805747;29;20080;-59
2023/06/09 01:12:35;;;;;;;11.00;5.75;;;12.30;74.70;;;;;;4819563;29;20038;-59
2023/06/09 01:15:10;;;;;;;9.50;5.60;;;12.40;76.90;;;;;;4805492;29;20034;-59
2023/06/09 01:17:39;;;;;;;14.13;5.47;;;12.50;80.10;;;;;;4805165;29;20475;-59
2023/06/09 01:20:12;;;;;;;11.48;5.95;;;12.60;81.90;;;;;;4805324;29;20047;-59
2023/06/09 01:23:04;;;;;;;12.77;5.90;;;12.60;76.70;;;;;;4805541;29;20399;-59
2023/06/09 01:25:34;;;;;;;8.85;6.15;;;12.70;76.90;;;;;;4805209;29;20051;-59
2023/06/09 01:28:06;;;;;;;6.60;5.70;;;12.70;77.30;;;;;;4805062;29;20114;-59
2023/06/09 01:30:33;;;;;;;6.40;5.80;;;12.70;77.20;;;;;;4805439;29;20051;-59
2023/06/09 01:33:03;;;;;;;8.82;7.22;;;12.50;79.10;;;;;;4805273;29;20027;-59
2023/06/09 01:35:29;;;;;;;9.38;6.43;;;12.50;86.30;;;;;;4805290;29;20038;-59
2023/06/09 01:37:56;;;;;;;14.93;5.80;;;12.60;86.60;;;;;;4805198;29;20027;-59
2023/06/09 01:40:22;;;;;;;6.45;5.85;;;12.60;86.40;;;;;;4805116;29;20034;-59
2023/06/09 01:42:47;;;;;;;13.00;6.22;;;12.60;85.40;;;;;;4804796;29;20035;-59
2023/06/09 01:45:13;;;;;;;7.65;6.82;;;12.60;87.30;;;;;;4805111;29;20037;-59
2023/06/09 01:47:39;;;;;;;12.85;6.20;;;12.60;84.40;;;;;;4805110;29;20105;-59
2023/06/09 01:50:15;;;;;;;10.07;5.38;;;12.50;84.20;;;;;;4804765;29;20138;-59
2023/06/09 01:53:06;;;;;;;13.68;6.47;;;12.50;81.30;;;;;;4804909;29;20117;-59
2023/06/09 01:55:39;;;;;;;8.63;5.20;;;12.40;69.40;;;;;;4808878;29;20031;-59
2023/06/09 01:58:11;;;;;;;13.02;5.25;;;12.20;70.50;;;;;;4809117;29;20122;-59
2023/06/09 02:00:38;;;;;;;9.80;5.47;;;12.20;74.00;;;;;;4804484;29;20066;-59
2023/06/09 02:03:06;;;;;;;5.85;5.25;;;12.20;68.90;;;;;;4804757;29;20027;-59
2023/06/09 02:05:35;;;;;;;13.38;6.32;;;12.20;77.50;;;;;;4804853;29;20031;-59
2023/06/09 02:08:01;;;;;;;11.18;5.80;;;12.20;75.90;;;;;;4804798;29;20034;-59
2023/06/09 02:10:29;;;;;;;8.20;5.88;;;12.10;68.80;;;;;;4804658;29;20364;-59
2023/06/09 02:12:55;;;;;;;8.57;6.25;;;12.00;76.70;;;;;;4804716;29;20114;-59
2023/06/09 02:15:21;;;;;;;7.18;6.47;;;12.00;79.60;;;;;;4804684;29;20142;-59
2023/06/09 02:17:46;;;;;;;13.52;5.53;;;12.10;84.50;;;;;;4804679;29;20030;-59
2023/06/09 02:20:13;;;;;;;6.82;6.03;;;12.00;80.00;;;;;;4804440;29;20037;-59
2023/06/09 02:22:39;;;;;;;5.63;5.13;;;12.00;83.70;;;;;;4804784;29;20069;-59
2023/06/09 02:25:05;;;;;;;8.25;5.88;;;12.00;83.80;;;;;;4804342;29;20518;-59
2023/06/09 02:27:31;;;;;;;8.40;6.40;;;12.00;83.20;;;;;;4818444;29;20122;-59
2023/06/09 02:29:57;;;;;;;9.45;5.68;;;12.00;79.30;;;;;;4809537;29;20114;-59
2023/06/09 02:32:22;;;;;;;9.90;4.70;;;11.90;75.00;;;;;;4810584;29;20039;-59
2023/06/09 02:34:48;;;;;;;11.68;5.00;;;11.80;66.60;;;;;;4810248;29;20480;-59
2023/06/09 02:37:15;;;;;;;14.77;5.65;;;11.70;69.30;;;;;;4810526;29;20046;-59
2023/06/09 02:39:41;;;;;;;11.35;5.75;;;11.70;69.20;;;;;;4810692;29;20035;-59
2023/06/09 02:42:07;;;;;;;5.93;5.32;;;11.60;70.60;;;;;;4810386;29;20176;-59
2023/06/09 02:44:36;;;;;;;10.57;6.20;;;11.60;78.90;;;;;;4810443;29;20113;-59
2023/06/09 02:47:03;;;;;;;6.70;5.93;;;11.60;79.60;;;;;;4810479;29;20060;-59
2023/06/09 02:49:29;;;;;;;8.77;6.43;;;11.60;76.30;;;;;;4824023;29;20031;-59
2023/06/09 02:51:55;;;;;;;6.38;5.78;;;11.60;78.90;;;;;;4810327;29;20031;-58
2023/06/09 02:54:20;;;;;;;6.90;5.85;;;11.50;72.30;;;;;;4824284;29;20670;-59
2023/06/09 02:56:46;;;;;;;6.50;5.90;;;11.50;75.20;;;;;;4810552;29;20031;-59
2023/06/09 02:59:11;;;;;;;5.85;5.25;;;11.50;72.80;;;;;;4810330;29;20483;-59
2023/06/09 03:01:38;;;;;;;8.88;5.25;;;11.40;71.10;;;;;;4809670;29;20084;-59
2023/06/09 03:04:09;;;;;;;9.77;6.22;;;11.40;67.50;;;;;;4824081;29;20042;-59
2023/06/09 03:06:43;;;;;;;10.35;5.50;;;11.40;64.20;;;;;;4810212;29;20033;-58
2023/06/09 03:09:10;;;;;;;10.60;5.60;;;11.30;72.10;;;;;;4810066;29;20041;-59
2023/06/09 03:11:37;;;;;;;9.55;6.32;;;11.20;77.50;;;;;;4810090;29;20046;-59
2023/06/09 03:14:02;;;;;;;7.32;5.47;;;11.20;77.30;;;;;;4810183;29;20066;-59
2023/06/09 03:16:28;;;;;;;11.07;6.28;;;11.30;77.50;;;;;;4810145;29;20095;-59
2023/06/09 03:18:54;;;;;;;9.70;5.90;;;11.20;73.20;;;;;;4810169;29;20088;-58
2023/06/09 03:21:24;;;;;;;7.25;5.70;;;11.20;80.10;;;;;;4810236;29;20031;-59
2023/06/09 03:23:50;;;;;;;7.95;6.03;;;11.20;83.90;;;;;;4810034;29;20030;-59
2023/06/09 03:26:17;;;;;;;11.70;5.60;;;11.20;76.70;;;;;;4809720;29;20137;-58
2023/06/09 03:28:43;;;;;;;11.70;6.40;;;11.20;72.60;;;;;;4810195;29;20030;-59
2023/06/09 03:31:09;;;;;;;13.55;6.50;;;11.20;75.40;;;;;;4809896;29;20034;-59
2023/06/09 03:33:35;;;;;;;12.25;6.25;;;11.20;74.70;;;;;;4810074;29;20030;-59
2023/06/09 03:36:01;;;;;;;7.80;6.55;;;11.10;74.00;;;;;;4823662;29;20439;-59
2023/06/09 03:38:26;;;;;;;9.82;6.80;;;11.20;76.70;;;;;;4810127;29;20449;-59
2023/06/09 03:40:52;;;;;;;6.55;5.95;;;11.20;77.50;;;;;;4807949;29;20118;-59
2023/06/09 03:43:23;;;;;;;14.32;6.75;;;11.20;77.90;;;;;;4806972;29;20055;-59
2023/06/09 03:45:49;;;;;;;8.07;6.13;;;11.30;82.20;;;;;;4807126;29;20037;-59
2023/06/09 03:48:16;;;;;;;8.02;6.47;;;11.40;79.10;;;;;;4807103;29;20110;-59
2023/06/09 03:50:42;;;;;;;7.10;6.40;;;11.40;78.20;;;;;;4807085;29;20031;-59
2023/06/09 03:53:07;;;;;;;11.00;6.47;;;11.40;72.40;;;;;;4806797;29;20364;-59
2023/06/09 03:55:33;;;;;;;11.60;6.32;;;11.40;74.50;;;;;;4806782;29;20039;-58
2023/06/09 03:57:59;;;;;;;11.57;5.55;;;11.40;71.40;;;;;;4806713;29;20095;-59
2023/06/09 04:00:25;;;;;;;11.20;6.70;;;11.50;76.70;;;;;;4820664;29;20055;-57
2023/06/09 04:02:50;;;;;;;8.80;5.85;;;11.50;74.50;;;;;;4806860;29;20031;-59
2023/06/09 04:05:16;;;;;;;12.52;6.53;;;11.50;75.30;;;;;;4806853;29;20034;-59
2023/06/09 04:07:42;;;;;;;7.30;6.05;;;11.50;77.30;;;;;;4806730;29;20467;-59
2023/06/09 04:10:08;;;;;;;10.52;6.78;;;11.50;77.30;;;;;;4806400;29;20039;-59
2023/06/09 04:12:34;;;;;;;14.98;6.72;;;11.50;80.40;;;;;;4806818;29;20031;-59
2023/06/09 04:15:00;;;;;;;10.05;6.68;;;11.50;86.10;;;;;;4806567;29;20434;-59
2023/06/09 04:17:26;;;;;;;10.90;6.90;;;11.60;87.80;;;;;;4806618;29;20471;-59
2023/06/09 04:19:54;;;;;;;14.13;6.68;;;11.70;88.40;;;;;;4806543;29;20034;-59
2023/06/09 04:22:20;;;;;;;6.60;6.00;;;11.70;89.00;;;;;;4806460;29;20042;-59
2023/06/09 04:24:45;;;;;;;7.47;6.70;;;11.80;87.20;;;;;;4806282;29;20031;-59
2023/06/09 04:27:15;;;;;;;7.47;6.10;;;12.10;88.70;;;;;;4806373;29;20383;-58
2023/06/09 04:29:41;;;;;;;8.25;7.55;;;12.20;86.10;;;;;;4806479;29;20417;-58
2023/06/09 04:32:07;;;;;;;8.30;7.20;;;12.30;81.70;;;;;;4806384;29;20039;-59
2023/06/09 04:34:38;;;;;;;8.40;7.10;;;12.40;84.20;;;;;;4806311;29;20034;-59
2023/06/09 04:37:07;;;;;;;9.63;6.90;;;12.50;85.90;;;;;;4806166;29;20464;-59
2023/06/09 04:39:33;;;;;;;11.15;8.73;;;12.60;87.90;;;;;;4806149;29;20391;-59
2023/06/09 04:42:04;;;;;;;9.70;8.27;;;12.70;88.00;;;;;;4805908;29;20093;-59
2023/06/09 04:44:32;;;;;;;14.38;9.48;;;12.70;86.40;;;;;;4806111;29;20030;-59
2023/06/09 04:46:59;;;;;;;15.07;8.98;;;12.80;90.20;;;;;;4806000;29;20031;-59
2023/06/09 04:49:26;;;;;;;10.27;8.77;;;12.90;89.30;;;;;;4820007;29;20031;-59
2023/06/09 04:51:54;;;;;;;16.10;8.88;;;12.90;89.00;;;;;;4805739;29;20068;-58
2023/06/09 04:54:20;;;;;;;12.05;8.73;;;13.00;89.20;;;;;;4805659;29;20039;-58
2023/06/09 04:56:52;;;;;;;9.88;7.05;;;13.20;90.00;;;;;;4801600;29;20095;-59
2023/06/09 04:59:20;;;;;;;8.35;7.45;;;13.40;85.90;;;;;;4806050;29;20047;-59
2023/06/09 05:01:46;;;;;;;11.65;8.65;;;13.70;81.20;;;;;;4819135;29;20491;-59
2023/06/09 05:04:17;;;;;;;12.45;9.00;;;13.80;76.50;;;;;;4805644;29;20464;-58
2023/06/09 05:06:42;;;;;;;10.45;9.35;;;13.90;76.10;;;;;;4805398;29;20027;-59
2023/06/09 05:09:08;;;;;;;12.50;8.80;;;14.00;75.30;;;;;;4788602;29;20060;-59
2023/06/09 05:11:34;;;;;;;11.48;8.20;;;14.00;76.40;;;;;;4804374;29;20440;-59
2023/06/09 05:14:00;;;;;;;9.77;8.25;;;14.00;76.30;;;;;;4805025;29;20018;-59
2023/06/09 05:16:27;;;;;;;10.70;9.30;;;14.00;78.50;;;;;;4805165;29;20423;-59
2023/06/09 05:18:52;;;;;;;12.15;9.88;;;14.00;77.40;;;;;;4805330;29;20038;-59
2023/06/09 05:21:18;;;;;;;13.35;9.32;;;13.90;82.50;;;;;;4805244;29;20687;-59
2023/06/09 05:23:44;;;;;;;13.10;10.05;;;13.90;84.80;;;;;;4805359;29;20178;-59
2023/06/09 05:26:10;;;;;;;10.63;9.55;;;13.90;84.90;;;;;;4805206;29;20534;-59
2023/06/09 05:28:36;;;;;;;14.88;10.35;;;13.90;87.60;;;;;;4798729;29;20059;-59
2023/06/09 05:31:02;;;;;;;14.68;10.65;;;13.90;90.70;;;;;;4787158;30;20115;-59
2023/06/09 05:33:28;;;;;;;14.88;10.30;;;13.90;90.40;;;;;;4800321;29;20035;-59
2023/06/09 05:35:53;;;;;;;15.77;10.43;;;14.00;91.60;;;;;;4805164;29;20041;-59
2023/06/09 05:38:23;;;;;;;13.75;9.95;;;14.00;92.10;;;;;;4805016;29;20039;-59
2023/06/09 05:40:49;;;;;;;11.43;10.07;;;14.10;90.50;;;;;;4805182;29;20034;-59
2023/06/09 05:43:15;;;;;;;17.38;9.70;;;14.10;90.50;;;;;;4804998;29;20027;-59
2023/06/09 05:45:40;;;;;;;14.85;10.32;;;14.10;92.10;;;;;;4805181;29;20050;-59
2023/06/09 05:48:06;;;;;;;11.18;9.75;;;14.10;91.90;;;;;;4804911;29;20031;-59
2023/06/09 05:50:32;;;;;;;14.30;9.80;;;14.20;91.60;;;;;;4804731;29;20035;-60
2023/06/09 05:52:57;;;;;;;13.45;10.10;;;14.20;90.50;;;;;;4821222;29;20038;-59
2023/06/09 05:55:25;;;;;;;12.85;10.55;;;14.30;94.00;;;;;;4804559;29;20026;-60
2023/06/09 05:57:51;;;;;;;11.82;10.63;;;14.40;92.70;;;;;;4804386;29;20037;-60
2023/06/09 06:00:17;;;;;;;18.85;11.48;;;14.50;92.50;;;;;;4804435;29;20030;-60
2023/06/09 06:02:44;;;;;;;12.48;10.98;;;14.70;91.70;;;;;;4804270;29;20117;-59
2023/06/09 06:05:11;;;;;;;20.35;12.77;;;14.90;91.30;;;;;;4803999;29;20023;-59
2023/06/09 06:07:38;;;;;;;17.15;11.30;;;15.00;90.60;;;;;;4804443;29;20018;-59
2023/06/09 06:10:05;;;;;;;12.68;10.63;;;15.30;90.80;;;;;;4804431;29;20121;-59
2023/06/09 06:12:34;;;;;;;16.60;11.98;;;15.50;90.80;;;;;;4804255;29;20084;-59
2023/06/09 06:15:00;;;;;;;18.60;13.85;;;15.70;87.70;;;;;;4804559;29;20034;-59
2023/06/09 06:17:26;;;;;;;19.75;13.88;;;15.90;82.10;;;;;;4804600;29;20031;-59
2023/06/09 06:19:51;;;;;;;20.25;14.23;;;16.10;80.90;;;;;;4804615;29;20574;-59
2023/06/09 06:22:17;;;;;;;17.65;14.38;;;16.10;66.60;;;;;;4804399;29;20034;-59
2023/06/09 06:24:43;;;;;;;19.25;14.98;;;16.20;64.50;;;;;;4804406;29;20031;-58
2023/06/09 06:27:08;;;;;;;15.45;12.63;;;16.30;60.40;;;;;;4818434;29;20039;-59
2023/06/09 06:29:38;;;;;;;15.88;13.88;;;16.60;58.80;;;;;;4804176;29;20035;-58
2023/06/09 06:32:05;;;;;;;16.45;13.05;;;16.80;35.20;;;;;;4804423;29;20068;-58
2023/06/09 06:34:31;;;;;;;13.80;12.40;;;16.90;37.60;;;;;;4804520;29;20156;-58
2023/06/09 06:36:56;;;;;;;13.73;11.73;;;17.10;29.30;;;;;;4804561;29;20114;-59
2023/06/09 06:39:22;;;;;;;13.77;11.98;;;17.50;19.40;;;;;;4804678;29;20027;-58
2023/06/09 06:41:48;;;;;;;13.38;11.55;;;17.40;11.80;;;;;;4804278;29;20039;-58
2023/06/09 06:44:13;;;;;;;15.73;12.07;;;17.60;16.40;;;;;;4804222;29;20039;-58
2023/06/09 06:46:39;;;;;;;13.35;11.40;;;17.70;1.00;;;;;;4801619;29;20087;-58
2023/06/09 06:49:05;;;;;;;16.20;12.18;;;17.70;1.00;;;;;;4802565;29;20596;-58
2023/06/09 06:51:30;;;;;;;11.95;10.80;;;17.90;26.40;;;;;;4803282;29;20121;-57
2023/06/09 06:53:56;;;;;;;11.23;10.02;;;18.20;1.00;;;;;;4804045;29;20027;-58
2023/06/09 06:56:22;;;;;;;12.13;10.82;;;18.30;1.00;;;;;;4803276;29;20037;-58
2023/06/09 06:58:48;;;;;;;14.13;10.68;;;18.40;1.00;;;;;;4804094;29;20042;-58
2023/06/09 07:01:22;;;;;;;13.63;10.57;;;18.50;1.00;;;;;;4804055;29;20042;-58
2023/06/09 07:03:50;;;;;;;11.73;10.52;;;18.80;1.00;;;;;;4804012;29;20050;-58
2023/06/09 07:06:17;;;;;;;11.27;10.18;;;18.90;1.00;;;;;;4804108;29;20092;-57
2023/06/09 07:08:43;;;;;;;10.85;9.80;;;19.20;1.00;;;;;;4802199;29;20035;-58
2023/06/09 07:11:09;;;;;;;12.77;9.63;;;19.20;1.00;;;;;;4801773;29;20103;-57
2023/06/09 07:13:35;;;;;;;12.15;9.23;;;19.50;1.00;;;;;;4801605;29;20064;-58
2023/06/09 07:16:01;;;;;;;11.98;9.10;;;19.60;1.00;;;;;;4803884;29;20068;-59
2023/06/09 07:18:27;;;;;;;10.05;9.02;;;19.90;1.00;;;;;;4805490;29;20517;-58
2023/06/09 07:20:53;;;;;;;12.52;9.15;;;19.90;99.90;;;;;;4805844;29;20031;-59
2023/06/09 07:23:19;;;;;;;9.65;8.65;;;19.90;99.90;;;;;;4806489;29;20027;-59
2023/06/09 07:25:44;;;;;;;13.27;9.50;;;19.80;99.90;;;;;;4806577;29;20055;-59
2023/06/09 07:28:10;;;;;;;12.68;9.65;;;19.60;99.90;;;;;;4807168;29;20031;-58
2023/06/09 07:30:41;;;;;;;14.27;10.48;;;19.40;99.90;;;;;;4807358;29;20441;-59
2023/06/09 07:33:08;;;;;;;10.18;8.85;;;19.40;99.90;;;;;;4807037;29;20422;-58
2023/06/09 07:35:33;;;;;;;13.55;8.05;;;19.50;99.90;;;;;;4807315;29;20023;-58
2023/06/09 07:38:00;;;;;;;14.30;9.50;;;19.30;99.90;;;;;;4820651;29;20049;-59
2023/06/09 07:40:26;;;;;;;13.82;9.10;;;19.40;99.90;;;;;;4807098;29;20035;-59
2023/06/09 07:42:52;;;;;;;11.32;8.40;;;19.30;99.90;;;;;;4807051;29;20088;-59
2023/06/09 07:45:18;;;;;;;9.73;7.93;;;19.50;99.90;;;;;;4807051;29;20112;-58
2023/06/09 07:47:44;;;;;;;12.07;9.07;;;19.50;99.90;;;;;;4806991;29;20030;-59
2023/06/09 07:50:10;;;;;;;10.07;8.82;;;19.50;99.90;;;;;;4806877;29;20114;-58
2023/06/09 07:52:39;;;;;;;7.88;7.03;;;19.60;99.90;;;;;;4806819;29;20363;-59
2023/06/09 07:55:06;;;;;;;8.75;7.05;;;19.80;90.50;;;;;;4806660;29;20102;-58
2023/06/09 07:57:32;;;;;;;7.03;6.32;;;20.30;85.80;;;;;;4806776;29;20500;-58
2023/06/09 07:59:58;;;;;;;7.70;6.90;;;20.50;1.00;;;;;;4806524;29;20098;-58
2023/06/09 08:02:23;;;;;;;7.82;7.03;;;20.70;99.90;;;;;;4820571;29;20087;-58
2023/06/09 08:04:49;;;;;;;10.80;6.95;;;20.70;11.50;;;;;;4806792;29;20041;-59
2023/06/09 08:07:15;;;;;;;12.90;7.15;;;20.90;99.90;;;;;;4806420;29;20643;-59
2023/06/09 08:09:40;;;;;;;29.88;26.25;;;21.10;99.90;;;;;;4806623;29;20046;-59
2023/06/09 08:12:07;;;;;;;8.50;6.75;;;21.30;99.90;;;;;;4806299;29;20411;-59
2023/06/09 08:14:33;;;;;;;7.63;6.82;;;21.40;1.00;;;;;;4806500;29;20570;-59
2023/06/09 08:16:59;;;;;;;13.20;7.32;;;21.70;15.20;;;;;;4806503;29;20095;-59
2023/06/09 08:19:24;;;;;;;8.77;6.22;;;21.60;1.00;;;;;;4806624;29;20028;-59
2023/06/09 08:21:50;;;;;;;9.05;6.85;;;21.60;99.90;;;;;;4806277;29;20385;-59
2023/06/09 08:24:16;;;;;;;7.43;6.72;;;21.80;99.90;;;;;;4806255;29;20042;-59
2023/06/09 08:26:43;;;;;;;7.85;6.30;;;21.80;99.90;;;;;;4805494;29;20051;-59
2023/06/09 08:29:11;;;;;;;7.95;6.75;;;22.00;99.90;;;;;;4806016;29;20085;-59
2023/06/09 08:31:39;;;;;;;12.38;5.43;;;22.20;1.00;;;;;;4806200;29;20035;-57
2023/06/09 08:34:05;;;;;;;10.18;6.18;;;22.40;99.90;;;;;;4806140;29;20053;-59
2023/06/09 08:36:31;;;;;;;9.63;6.15;;;22.40;99.90;;;;;;4806099;29;20093;-59
2023/06/09 08:38:57;;;;;;;7.55;5.88;;;22.30;99.90;;;;;;4805270;29;20138;-57
2023/06/09 08:41:27;;;;;;;7.57;5.75;;;22.10;99.90;;;;;;4805508;29;20121;-59
2023/06/09 08:43:53;;;;;;;8.27;6.50;;;22.00;99.90;;;;;;4805110;29;20035;-59
2023/06/09 08:46:21;;;;;;;6.25;5.47;;;22.10;99.90;;;;;;4804738;29;20104;-59
2023/06/09 08:48:53;;;;;;;5.95;5.35;;;22.10;99.90;;;;;;4812281;29;20041;-58
2023/06/09 08:51:21;;;;;;;6.90;5.73;;;21.90;1.00;;;;;;4823286;29;20042;-58
2023/06/09 08:53:52;;;;;;;13.10;6.88;;;21.90;99.90;;;;;;4823034;29;20149;-58
2023/06/09 08:56:19;;;;;;;8.30;5.97;;;21.80;99.90;;;;;;4822370;29;20034;-57
2023/06/09 08:58:47;;;;;;;12.60;6.60;;;21.60;7.70;;;;;;4821938;29;20031;-57
2023/06/09 09:01:14;;;;;;;13.70;5.82;;;21.80;12.20;;;;;;4822031;29;20095;-58
2023/06/09 09:03:40;;;;;;;6.20;5.60;;;21.80;1.00;;;;;;4820919;29;20495;-58
2023/06/09 09:06:06;;;;;;;8.55;5.43;;;21.60;99.90;;;;;;4808349;29;20074;-55
2023/06/09 09:08:32;;;;;;;7.82;5.07;;;21.70;1.00;;;;;;4805023;29;20483;-58
2023/06/09 09:10:57;;;;;;;7.43;5.18;;;21.70;1.00;;;;;;4804825;29;20101;-56
2023/06/09 09:13:30;;;;;;;8.20;5.47;;;21.80;1.00;;;;;;4820388;29;20360;-58
2023/06/09 09:15:56;;;;;;;7.05;5.47;;;21.90;99.90;;;;;;4823332;29;20022;-58
2023/06/09 09:18:22;;;;;;;8.93;5.22;;;22.20;99.90;;;;;;4823175;29;20054;-54
2023/06/09 09:20:48;;;;;;;10.88;4.97;;;22.40;1.00;;;;;;4814852;29;20412;-56
2023/06/09 09:23:14;;;;;;;6.95;3.92;;;22.60;99.90;;;;;;4818509;29;20328;-58
2023/06/09 09:25:41;;;;;;;8.90;4.45;;;22.90;99.90;;;;;;4810783;29;20112;-57
2023/06/09 09:28:11;;;;;;;5.50;4.05;;;23.30;99.90;;;;;;4823110;29;20042;-57
2023/06/09 09:30:40;;;;;;;4.85;4.03;;;23.10;1.00;;;;;;4823117;29;20104;-58
2023/06/09 09:33:08;;;;;;;4.85;4.20;;;23.10;1.00;;;;;;4821838;29;20088;-59
2023/06/09 09:35:39;;;;;;;11.20;4.65;;;23.40;1.00;;;;;;4822461;29;20439;-58
2023/06/09 09:38:11;;;;;;;6.90;3.95;;;23.70;1.00;;;;;;4812927;29;20034;-59
2023/06/09 09:40:42;;;;;;;6.72;4.32;;;24.10;1.00;;;;;;4804896;29;20034;-58
2023/06/09 09:43:10;;;;;;;6.00;4.75;;;23.80;1.00;;;;;;4803829;29;20065;-58
2023/06/09 09:45:38;;;;;;;4.82;4.43;;;23.90;1.00;;;;;;4804661;29;20034;-58
2023/06/09 09:48:11;;;;;;;5.15;4.30;;;24.10;1.00;;;;;;4804493;29;20113;-57
2023/06/09 09:50:39;;;;;;;6.57;5.03;;;24.20;1.00;;;;;;4785853;29;20102;-57
2023/06/09 09:53:06;;;;;;;5.70;5.18;;;24.50;1.00;;;;;;4788880;29;20119;-57
2023/06/09 09:55:34;;;;;;;4.93;4.43;;;24.30;99.90;;;;;;4817704;29;20041;-57
2023/06/09 09:58:07;;;;;;;6.65;5.03;;;24.50;1.00;;;;;;4821713;29;20091;-58
2023/06/09 10:00:35;;;;;;;5.53;4.28;;;24.30;99.90;;;;;;4822070;29;20038;-57
2023/06/09 10:03:08;;;;;;;6.13;4.38;;;24.10;99.90;;;;;;4821447;29;20038;-57
2023/06/09 10:05:40;;;;;;;;;;;24.20;99.90;;;;;;4822469;29;20039;-58
2023/06/09 10:08:09;;;;;;;7.72;3.67;;;24.30;1.00;;;;;;4821866;29;19909;-57
2023/06/09 10:10:35;;;;;;;8.20;4.25;;;24.50;99.90;;;;;;4821839;29;20155;-58
2023/06/09 10:13:03;;;;;;;5.60;4.70;;;24.80;99.90;;;;;;4821446;29;20056;-56
2023/06/09 10:15:29;;;;;;;6.63;4.40;;;24.90;99.90;;;;;;4821641;29;20062;-57
2023/06/09 10:17:57;;;;;;;8.80;4.88;;;25.10;1.00;;;;;;4821431;29;20474;-58
2023/06/09 10:20:23;;;;;;;8.45;5.35;;;25.40;99.90;;;;;;4821358;29;20490;-57
2023/06/09 10:22:49;;;;;;;6.72;4.47;;;25.20;99.90;;;;;;4821535;29;20042;-57
2023/06/09 10:25:15;;;;;;;4.85;4.35;;;25.30;99.90;;;;;;4835314;29;20469;-58
2023/06/09 10:27:42;;;;;;;7.35;4.43;;;25.50;99.90;;;;;;4822660;29;20039;-58
2023/06/09 10:30:08;;;;;;;7.82;4.65;;;25.50;99.90;;;;;;4822627;29;20019;-58
2023/06/09 10:32:38;;;;;;;7.13;4.53;;;25.60;99.90;;;;;;4822862;29;20038;-57
2023/06/09 10:35:04;;;;;;;7.18;4.00;;;25.90;99.90;;;;;;4822606;29;20065;-57
2023/06/09 10:37:31;;;;;;;6.97;4.97;;;25.80;99.90;;;;;;4822848;29;20087;-57
2023/06/09 10:40:16;;;;;;;5.53;4.63;;;25.80;99.90;;;;;;4822558;29;20027;-56
2023/06/09 10:43:07;;;;;;;6.75;5.38;;;25.60;99.90;;;;;;4821310;29;20034;-57
2023/06/09 10:45:57;;;;;;;6.28;5.15;;;25.70;99.90;;;;;;4822558;29;20031;-58
2023/06/09 10:48:50;;;;;;;6.47;4.57;;;25.70;99.90;;;;;;4822488;29;20373;-58
2023/06/09 10:51:28;;;;;;;;;;;25.70;99.90;;;;;;4825799;29;20106;-57
2023/06/09 10:54:12;;;;;;;5.35;4.68;;;25.80;99.90;;;;;;4826190;29;19948;-58
2023/06/09 10:56:52;;;;;;;7.55;5.47;;;26.00;99.90;;;;;;4826034;29;20113;-57
2023/06/09 10:59:27;;;;;;;12.98;6.00;;;26.00;99.90;;;;;;4826008;29;20034;-57
2023/06/09 11:02:05;;;;;;;9.52;4.78;;;26.40;99.90;;;;;;4825834;29;20034;-56
2023/06/09 11:04:45;;;;;;;13.65;4.68;;;26.50;99.90;;;;;;4825951;29;20035;-57
2023/06/09 11:07:15;;;;;;;10.63;4.85;;;26.50;99.90;;;;;;4825842;29;20056;-57
2023/06/09 11:10:00;;;;;;;5.25;4.32;;;26.70;94.50;;;;;;4825779;29;20035;-58
2023/06/09 11:12:42;;;;;;;6.55;4.78;;;27.00;73.30;;;;;;4825647;29;20027;-56
2023/06/09 11:15:10;;;;;;;5.10;4.60;;;26.60;44.50;;;;;;4825593;29;20092;-56
2023/06/09 11:17:43;;;;;;;6.63;4.40;;;26.60;17.80;;;;;;4825711;29;20038;-58
2023/06/09 11:20:20;;;;;;;;;;;26.80;87.90;;;;;;4826227;29;20040;-56
2023/06/09 11:22:49;;;;;;;11.40;4.75;;;26.80;11.80;;;;;;4825570;29;19913;-57
2023/06/09 11:25:15;;;;;;;8.25;4.65;;;27.10;1.00;;;;;;4825215;29;20042;-58
2023/06/09 11:27:42;;;;;;;9.38;4.97;;;27.40;1.00;;;;;;4825502;29;20500;-57
2023/06/09 11:30:18;;;;;;;7.25;4.50;;;27.90;1.00;;;;;;4825282;29;20399;-57
2023/06/09 11:33:02;;;;;;;6.63;4.43;;;28.00;1.00;;;;;;4825580;29;20450;-58
2023/06/09 11:35:40;;;;;;;6.95;4.82;;;27.30;1.00;;;;;;4825496;29;20033;-58
2023/06/09 11:38:08;;;;;;;7.40;3.83;;;26.90;1.00;;;;;;4825241;29;20126;-58
2023/06/09 11:40:49;;;;;;;9.32;4.32;;;27.60;1.00;;;;;;4825300;29;20089;-57
2023/06/09 11:43:15;;;;;;;6.10;4.45;;;27.50;1.00;;;;;;4825129;29;20596;-56
2023/06/09 11:45:41;;;;;;;5.50;4.38;;;27.40;1.00;;;;;;4825189;29;20029;-57
2023/06/09 11:48:07;;;;;;;4.70;4.05;;;27.40;1.00;;;;;;4824902;29;20027;-58
2023/06/09 11:50:39;;;;;;;6.57;4.05;;;27.20;1.00;;;;;;4825167;29;20083;-57
2023/06/09 11:53:16;;;;;;;8.20;4.38;;;27.40;1.00;;;;;;4825042;29;20117;-58
2023/06/09 11:55:43;;;;;;;5.65;4.32;;;27.50;1.00;;;;;;4825045;29;20034;-58
2023/06/09 11:58:10;;;;;;;4.65;4.13;;;27.60;1.00;;;;;;4824834;29;20034;-57
2023/06/09 12:00:43;;;;;;;4.57;4.18;;;28.40;1.00;;;;;;4824620;29;20444;-57
2023/06/09 12:03:10;;;;;;;7.18;3.97;;;28.70;1.00;;;;;;4822849;29;20050;-58
2023/06/09 12:05:35;;;;;;;7.30;4.00;;;28.40;1.00;;;;;;4824860;29;20387;-57
2023/06/09 12:08:01;;;;;;;7.75;3.83;;;29.70;1.00;;;;;;4838720;29;20043;-58
2023/06/09 12:10:28;;;;;;;5.78;3.75;;;30.10;1.00;;;;;;4824436;29;20125;-57
2023/06/09 12:12:56;;;;;;;11.75;3.95;;;29.80;99.90;;;;;;4817409;29;20123;-58
2023/06/09 12:15:24;;;;;;;7.15;3.80;;;29.30;99.90;;;;;;4820236;29;20421;-58
2023/06/09 12:17:54;;;;;;;4.03;3.50;;;28.80;99.90;;;;;;4812290;29;20049;-58
2023/06/09 12:20:26;;;;;;;5.68;3.40;;;28.30;99.90;;;;;;4824454;29;20122;-58
2023/06/09 12:22:54;;;;;;;8.52;3.83;;;27.70;99.90;;;;;;4824448;29;20045;-58
2023/06/09 12:25:26;;;;;;;5.85;4.30;;;27.40;99.90;;;;;;4824201;29;20054;-58
2023/06/09 12:27:53;;;;;;;6.22;3.40;;;27.20;99.90;;;;;;4824220;29;20078;-69
2023/06/09 12:30:36;;;;;;;6.65;3.78;;;27.10;99.90;;;;;;4824361;29;20038;-55
2023/06/09 12:33:25;;;;;;;3.73;3.37;;;27.00;99.90;;;;;;4824218;29;20053;-56
2023/06/09 12:35:52;;;;;;;5.85;3.22;;;28.30;99.90;;;;;;4815090;29;20073;-55
2023/06/09 12:38:21;;;;;;;7.72;3.42;;;29.60;99.90;;;;;;4823896;29;20069;-55
2023/06/09 12:40:52;;;;;;;11.18;2.85;;;32.00;99.90;;;;;;4824340;29;20068;-58
2023/06/09 12:43:19;;;;;;;5.50;2.90;;;33.60;99.90;;;;;;4823904;29;20121;-59
2023/06/09 12:45:46;;;;;;;4.80;3.08;;;33.40;99.90;;;;;;4824118;29;20563;-59
2023/06/09 12:48:12;;;;;;;6.45;2.95;;;33.50;99.90;;;;;;4824059;29;20042;-56